aviador You're here:

KM25 Decoded Metar

in
Report Time2018-07-18 20:15:00
UTC Time2018-07-18 20:22:47
Flight Rules vfr VFR
Wind060° at 06 kt
W.Rank060° ranks 23
Current wind is above 060° avg. (4.9)
Visibility9999 m
Phenomena:N/A
Clouds:N/A
Expected CloudBase > 4,000 ft AGL from Temp-Dew spread
CeilingNone
Temp30°C
Dew Point20°C (55% RH)
Heat Index31.9°C
QNH1016 hPa
Raw Report
METAR KM25 182015Z AUTO 06006KT 10SM CLR 30/20 A3001 RMK AO2 PWINO=

Extra information for KM25:More info

Social comments